Time;durP1;ratioP1;P1;durP2;ratioP2;P2;SDS_P1;SDS_P2;PMS_P1;PMS_P2;Temp;Humidity;BMP_temperature;BMP_pressure;BME280_temperature;BME280_humidity;BME280_pressure;Samples;Min_cycle;Max_cycle;Signal;HPM_P1;HPM_P2
2022/10/23 00:01:38;;;;;;;7.00;6.32;;;13.30;99.90;;;;;;6278913;22;20015;-74
2022/10/23 00:04:15;;;;;;;6.85;6.25;;;13.40;99.90;;;;;;6226980;22;20007;-74
2022/10/23 00:06:41;;;;;;;6.22;5.72;;;13.40;99.90;;;;;;6305803;22;20003;-74
2022/10/23 00:09:11;;;;;;;7.10;6.40;;;13.30;99.90;;;;;;6302285;22;20003;-67
2022/10/23 00:11:37;;;;;;;7.35;6.05;;;13.30;99.90;;;;;;6298445;22;20640;-67
2022/10/23 00:14:05;;;;;;;6.70;6.05;;;13.30;99.90;;;;;;6297253;22;20034;-67
2022/10/23 00:16:31;;;;;;;6.47;5.80;;;13.30;99.90;;;;;;6299723;22;20031;-68
2022/10/23 00:18:57;;;;;;;7.45;5.60;;;13.30;99.90;;;;;;6300120;22;20042;-67
2022/10/23 00:21:23;;;;;;;8.68;7.43;;;13.30;99.90;;;;;;6300311;22;20019;-68
2022/10/23 00:23:49;;;;;;;6.95;6.35;;;13.30;99.90;;;;;;6300202;22;19995;-67
2022/10/23 00:26:15;;;;;;;7.60;6.32;;;13.40;99.90;;;;;;6296010;22;20351;-67
2022/10/23 00:28:48;;;;;;;8.68;7.78;;;13.40;99.90;;;;;;6294442;22;20011;-67
2022/10/23 00:31:15;;;;;;;10.38;9.30;;;13.40;99.90;;;;;;6295559;22;20023;-67
2022/10/23 00:33:41;;;;;;;13.27;11.15;;;13.40;99.90;;;;;;6296078;22;20045;-67
2022/10/23 00:36:09;;;;;;;12.30;11.10;;;13.20;99.90;;;;;;6294298;22;20078;-68
2022/10/23 00:38:35;;;;;;;13.40;12.00;;;13.00;99.90;;;;;;6296098;22;20257;-68
2022/10/23 00:41:01;;;;;;;13.68;12.27;;;12.90;99.90;;;;;;6295335;22;20072;-67
2022/10/23 00:43:29;;;;;;;15.57;11.43;;;12.80;99.90;;;;;;6295090;22;20154;-67
2022/10/23 00:45:55;;;;;;;14.63;12.80;;;12.70;99.90;;;;;;6295182;22;20258;-76
2022/10/23 00:48:21;;;;;;;16.95;15.20;;;12.70;99.90;;;;;;6299599;22;19999;-76
2022/10/23 00:50:48;;;;;;;18.20;16.05;;;12.70;99.90;;;;;;6297773;22;20526;-75
2022/10/23 00:53:15;;;;;;;19.25;16.90;;;12.70;99.90;;;;;;6296001;22;20078;-75
2022/10/23 00:55:46;;;;;;;18.30;16.27;;;12.60;99.90;;;;;;6297984;22;20431;-74
2022/10/23 00:58:17;;;;;;;17.70;15.55;;;12.50;99.90;;;;;;6270430;22;20034;-75
2022/10/23 01:00:45;;;;;;;11.93;10.73;;;12.60;99.90;;;;;;6298675;22;20069;-71
2022/10/23 01:03:12;;;;;;;14.27;12.40;;;12.60;99.90;;;;;;6269726;22;20021;-72
2022/10/23 01:05:49;;;;;;;14.85;13.25;;;12.70;99.90;;;;;;6269965;22;20007;-65
2022/10/23 01:08:45;;;;;;;17.50;14.30;;;12.70;99.90;;;;;;6267053;22;20021;-67
2022/10/23 01:11:19;;;;;;;18.40;15.48;;;12.70;99.90;;;;;;6296203;22;20082;-67
2022/10/23 01:13:56;;;;;;;18.75;16.83;;;12.60;99.90;;;;;;6293667;22;20038;-67
2022/10/23 01:16:36;;;;;;;17.77;15.95;;;12.70;99.90;;;;;;6292297;22;20014;-67
2022/10/23 01:19:41;;;;;;;17.20;15.40;;;12.60;99.90;;;;;;6294656;22;20006;-67
2022/10/23 01:22:40;;;;;;;19.58;17.20;;;12.60;99.90;;;;;;6266123;22;20050;-73
2022/10/23 01:25:34;;;;;;;20.42;18.35;;;12.50;99.90;;;;;;6295941;22;20015;-72
2022/10/23 01:28:03;;;;;;;19.08;17.13;;;12.40;99.90;;;;;;6293750;22;20003;-73
2022/10/23 01:30:32;;;;;;;24.33;19.77;;;12.40;99.90;;;;;;6293772;22;20326;-72
2022/10/23 01:33:08;;;;;;;23.67;20.17;;;12.30;99.90;;;;;;6292409;22;20023;-72
2022/10/23 01:35:42;;;;;;;27.02;20.58;;;12.30;99.90;;;;;;6263294;22;20018;-74
2022/10/23 01:38:13;;;;;;;23.25;20.70;;;12.20;99.90;;;;;;6290686;22;20529;-73
2022/10/23 01:40:52;;;;;;;23.10;20.67;;;12.20;99.90;;;;;;6293407;22;20504;-69
2022/10/23 01:43:31;;;;;;;24.75;20.60;;;12.20;99.90;;;;;;6293515;22;20556;-75
2022/10/23 01:46:07;;;;;;;25.90;21.63;;;12.20;99.90;;;;;;6292525;22;20019;-72
2022/10/23 01:48:35;;;;;;;26.38;22.23;;;12.20;99.90;;;;;;6294077;22;20003;-73
2022/10/23 01:51:04;;;;;;;25.38;21.58;;;12.20;99.90;;;;;;6293017;22;20003;-72
2022/10/23 01:53:34;;;;;;;26.58;21.73;;;12.10;99.90;;;;;;6295227;22;19999;-72
2022/10/23 01:56:05;;;;;;;25.10;20.83;;;12.00;99.90;;;;;;6293231;22;20053;-72
2022/10/23 01:58:32;;;;;;;24.85;22.00;;;11.90;99.90;;;;;;6293185;22;20041;-73
2022/10/23 02:01:02;;;;;;;26.20;22.00;;;11.90;99.90;;;;;;6292903;22;20073;-74
2022/10/23 02:03:32;;;;;;;24.48;21.58;;;11.90;99.90;;;;;;6297608;22;20010;-72
2022/10/23 02:05:57;;;;;;;27.00;23.48;;;11.80;99.90;;;;;;6294897;22;20145;-73
2022/10/23 02:08:24;;;;;;;23.45;20.98;;;11.80;99.90;;;;;;6297058;22;20031;-75
2022/10/23 02:11:08;;;;;;;23.02;20.42;;;11.80;99.90;;;;;;6292687;22;19999;-74
2022/10/23 02:13:43;;;;;;;24.08;20.48;;;11.80;99.90;;;;;;6296975;22;20513;-74
2022/10/23 02:16:24;;;;;;;24.40;21.67;;;11.90;99.90;;;;;;6293448;22;20095;-74
2022/10/23 02:19:14;;;;;;;25.15;20.58;;;11.90;99.90;;;;;;6294475;22;20060;-74
2022/10/23 02:21:51;;;;;;;24.70;20.42;;;11.90;99.90;;;;;;6267506;22;20032;-74
2022/10/23 02:24:25;;;;;;;24.67;21.02;;;11.80;99.90;;;;;;6296711;22;20057;-74
2022/10/23 02:26:54;;;;;;;22.15;19.60;;;11.80;99.90;;;;;;6295852;22;20007;-74
2022/10/23 02:29:26;;;;;;;21.48;18.50;;;11.90;99.90;;;;;;6295743;22;20003;-73
2022/10/23 02:31:52;;;;;;;22.88;19.30;;;11.80;99.90;;;;;;6295032;22;20015;-74
2022/10/23 02:34:18;;;;;;;23.80;20.38;;;11.70;99.90;;;;;;6296426;22;20003;-74
2022/10/23 02:36:44;;;;;;;25.33;21.52;;;11.80;99.90;;;;;;6296409;22;20467;-74
2022/10/23 02:39:09;;;;;;;24.90;20.65;;;11.70;99.90;;;;;;6296391;22;20007;-74
2022/10/23 02:41:43;;;;;;;22.33;19.40;;;11.70;99.90;;;;;;6293856;22;20021;-73
2022/10/23 02:44:29;;;;;;;24.02;20.48;;;11.70;99.90;;;;;;6294530;22;20084;-74
2022/10/23 02:47:03;;;;;;;18.30;16.27;;;11.70;99.90;;;;;;6294096;22;19999;-74
2022/10/23 02:49:46;;;;;;;21.98;18.63;;;11.60;99.90;;;;;;6265296;22;20042;-74
2022/10/23 02:52:24;;;;;;;17.77;15.88;;;11.50;99.90;;;;;;6295408;22;20002;-74
2022/10/23 02:54:56;;;;;;;18.95;16.85;;;11.50;99.90;;;;;;6298245;22;20045;-74
2022/10/23 02:57:37;;;;;;;18.33;16.38;;;11.30;99.90;;;;;;6296723;22;20003;-74
2022/10/23 03:00:05;;;;;;;21.98;18.58;;;11.20;99.90;;;;;;6294556;22;20102;-67
2022/10/23 03:02:39;;;;;;;19.88;17.58;;;11.20;99.90;;;;;;6294440;22;20011;-67
2022/10/23 03:05:09;;;;;;;19.05;17.05;;;11.20;99.90;;;;;;6296072;22;19999;-67
2022/10/23 03:07:35;;;;;;;20.75;17.80;;;11.20;99.90;;;;;;6297478;22;20007;-67
2022/10/23 03:10:01;;;;;;;20.50;18.30;;;11.20;99.90;;;;;;6296127;22;20021;-67
2022/10/23 03:12:26;;;;;;;20.85;18.65;;;11.20;99.90;;;;;;6294899;22;20003;-66
2022/10/23 03:14:52;;;;;;;22.17;19.60;;;11.20;99.90;;;;;;6297416;22;20007;-66
2022/10/23 03:17:18;;;;;;;21.80;18.52;;;11.20;99.90;;;;;;6292204;22;20007;-67
2022/10/23 03:19:43;;;;;;;23.42;19.92;;;11.10;99.90;;;;;;6296416;22;19999;-74
2022/10/23 03:22:09;;;;;;;17.85;15.95;;;11.10;99.90;;;;;;6294853;22;20086;-74
2022/10/23 03:24:34;;;;;;;22.73;17.65;;;10.90;99.90;;;;;;6296331;22;20003;-74
2022/10/23 03:27:00;;;;;;;23.10;18.33;;;10.80;99.90;;;;;;6296872;22;20021;-74
2022/10/23 03:29:25;;;;;;;16.65;14.90;;;10.80;99.90;;;;;;6297151;22;20012;-74
2022/10/23 03:31:51;;;;;;;17.55;15.57;;;10.80;99.90;;;;;;6293605;22;20099;-74
2022/10/23 03:34:18;;;;;;;19.02;16.90;;;10.70;99.90;;;;;;6294336;22;20003;-74
2022/10/23 03:36:43;;;;;;;18.38;15.50;;;10.70;99.90;;;;;;6297067;22;19999;-74
2022/10/23 03:39:09;;;;;;;19.92;17.35;;;10.60;99.90;;;;;;6297043;22;20010;-74
2022/10/23 03:41:34;;;;;;;19.83;16.90;;;10.60;99.90;;;;;;6267927;22;20011;-73
2022/10/23 03:44:00;;;;;;;20.25;16.83;;;10.60;99.90;;;;;;6296025;22;20145;-74
2022/10/23 03:46:26;;;;;;;12.07;10.88;;;10.50;99.90;;;;;;6293413;22;20007;-73
2022/10/23 03:48:51;;;;;;;18.17;12.88;;;10.50;99.90;;;;;;6296137;22;20652;-74
2022/10/23 03:51:17;;;;;;;16.17;14.48;;;10.40;99.90;;;;;;6294439;22;20395;-74
2022/10/23 03:53:42;;;;;;;16.33;14.65;;;10.30;99.90;;;;;;6298133;22;20364;-73
2022/10/23 03:56:08;;;;;;;18.30;15.57;;;10.30;99.90;;;;;;6266443;22;20336;-74
2022/10/23 03:58:34;;;;;;;18.33;13.52;;;10.30;99.90;;;;;;6295437;22;19999;-74
2022/10/23 04:00:59;;;;;;;18.65;15.32;;;10.30;99.90;;;;;;6293789;22;20039;-74
2022/10/23 04:03:25;;;;;;;21.83;17.05;;;10.30;99.90;;;;;;6267442;22;20038;-74
2022/10/23 04:05:50;;;;;;;26.55;19.33;;;10.40;99.90;;;;;;6292607;22;20318;-74
2022/10/23 04:08:16;;;;;;;24.33;19.33;;;10.40;99.90;;;;;;6295474;22;19999;-73
2022/10/23 04:10:41;;;;;;;23.27;19.40;;;10.50;99.90;;;;;;6294246;22;20096;-74
2022/10/23 04:13:07;;;;;;;17.20;15.23;;;10.60;99.90;;;;;;6296231;22;20003;-74
2022/10/23 04:15:32;;;;;;;18.50;16.35;;;10.50;99.90;;;;;;6293893;22;20057;-67
2022/10/23 04:17:58;;;;;;;22.20;18.33;;;10.40;99.90;;;;;;6296088;22;20033;-66
2022/10/23 04:20:23;;;;;;;19.25;17.20;;;10.40;99.90;;;;;;6293414;22;20129;-67
2022/10/23 04:22:49;;;;;;;20.73;18.10;;;10.40;99.90;;;;;;6296152;22;20000;-67
2022/10/23 04:25:15;;;;;;;20.92;18.23;;;10.40;99.90;;;;;;6294960;22;20010;-67
2022/10/23 04:27:41;;;;;;;26.58;18.25;;;10.40;99.90;;;;;;6294985;22;20003;-68
2022/10/23 04:30:07;;;;;;;22.02;17.55;;;10.50;99.90;;;;;;6296006;22;20320;-67
2022/10/23 04:32:33;;;;;;;24.10;18.40;;;10.40;99.90;;;;;;6294914;22;20046;-67
2022/10/23 04:34:59;;;;;;;22.23;18.55;;;10.40;99.90;;;;;;6294169;22;20571;-73
2022/10/23 04:37:25;;;;;;;23.92;17.70;;;10.40;99.90;;;;;;6296619;22;20000;-75
2022/10/23 04:39:50;;;;;;;23.15;17.10;;;10.40;99.90;;;;;;6296660;22;20045;-75
2022/10/23 04:42:16;;;;;;;22.25;16.60;;;10.40;99.90;;;;;;6267058;22;20758;-75
2022/10/23 04:44:41;;;;;;;24.17;17.55;;;10.40;99.90;;;;;;6296861;22;20056;-76
2022/10/23 04:47:07;;;;;;;24.80;19.17;;;10.40;99.90;;;;;;6296106;22;20445;-73
2022/10/23 04:49:32;;;;;;;27.13;18.52;;;10.40;99.90;;;;;;6295972;22;20007;-74
2022/10/23 04:51:58;;;;;;;25.67;18.33;;;10.40;99.90;;;;;;6293489;22;20003;-73
2022/10/23 04:54:24;;;;;;;28.25;19.60;;;10.40;99.90;;;;;;6296983;22;20010;-74
2022/10/23 04:56:49;;;;;;;34.17;20.25;;;10.50;99.90;;;;;;6294808;22;20010;-75
2022/10/23 04:59:15;;;;;;;39.53;18.65;;;10.50;99.90;;;;;;6296085;22;20137;-74
2022/10/23 05:01:40;;;;;;;29.38;18.83;;;10.60;99.90;;;;;;6290434;22;20498;-74
2022/10/23 05:04:06;;;;;;;56.17;19.58;;;10.60;99.90;;;;;;6292353;22;20007;-73
2022/10/23 05:06:32;;;;;;;47.65;20.13;;;10.60;99.90;;;;;;6293092;22;20038;-74
2022/10/23 05:08:57;;;;;;;35.45;20.50;;;10.60;99.90;;;;;;6295705;22;19999;-74
2022/10/23 05:11:23;;;;;;;43.70;20.15;;;10.50;99.90;;;;;;6293733;22;20017;-74
2022/10/23 05:13:48;;;;;;;32.17;20.70;;;10.50;99.90;;;;;;6293919;22;20080;-74
2022/10/23 05:16:31;;;;;;;30.33;21.27;;;10.50;99.90;;;;;;6293785;22;20010;-73
2022/10/23 05:18:58;;;;;;;78.63;20.70;;;10.60;99.90;;;;;;6295072;22;20181;-74
2022/10/23 05:21:27;;;;;;;33.33;21.20;;;10.60;99.90;;;;;;6293494;22;20348;-74
2022/10/23 05:23:53;;;;;;;28.02;20.77;;;10.60;99.90;;;;;;6295550;22;20060;-73
2022/10/23 05:26:21;;;;;;;31.83;20.27;;;10.70;99.90;;;;;;6294571;22;20077;-74
2022/10/23 05:28:47;;;;;;;40.15;20.17;;;10.70;99.90;;;;;;6295601;22;20771;-74
2022/10/23 05:31:13;;;;;;;35.65;21.92;;;10.70;99.90;;;;;;6295490;22;20003;-73
2022/10/23 05:33:39;;;;;;;34.80;19.92;;;10.80;99.90;;;;;;6295328;22;20003;-74
2022/10/23 05:36:07;;;;;;;36.35;20.25;;;10.80;99.90;;;;;;6292746;22;19999;-74
2022/10/23 05:38:34;;;;;;;38.35;20.65;;;10.80;99.90;;;;;;6293531;22;20042;-74
2022/10/23 05:41:00;;;;;;;41.53;21.33;;;10.90;99.90;;;;;;6294955;22;20024;-75
2022/10/23 05:43:26;;;;;;;46.83;20.25;;;10.90;99.90;;;;;;6294961;22;20730;-75
2022/10/23 05:45:52;;;;;;;51.20;19.63;;;10.90;99.90;;;;;;6293761;22;20013;-75
2022/10/23 05:48:18;;;;;;;36.45;18.58;;;10.90;99.90;;;;;;6269155;22;20124;-76
2022/10/23 05:50:43;;;;;;;35.60;18.52;;;10.90;99.90;;;;;;6264831;22;20071;-75
2022/10/23 05:53:10;;;;;;;23.02;16.25;;;10.90;99.90;;;;;;6293518;22;20010;-75
2022/10/23 05:55:35;;;;;;;21.90;16.45;;;10.90;99.90;;;;;;6292715;22;20008;-75
2022/10/23 05:58:02;;;;;;;39.08;13.70;;;11.00;99.90;;;;;;6294047;22;20450;-75
2022/10/23 06:00:27;;;;;;;18.02;13.00;;;11.00;99.90;;;;;;6266713;22;20580;-75
2022/10/23 06:02:53;;;;;;;16.23;11.38;;;11.10;99.90;;;;;;6299000;22;20085;-75
2022/10/23 06:05:18;;;;;;;16.27;13.23;;;11.10;99.90;;;;;;6295205;22;20088;-74
2022/10/23 06:07:44;;;;;;;33.40;16.30;;;11.10;99.90;;;;;;6295322;22;20035;-74
2022/10/23 06:10:10;;;;;;;39.65;17.25;;;11.10;99.90;;;;;;6295654;22;19995;-75
2022/10/23 06:12:35;;;;;;;56.92;19.52;;;11.20;99.90;;;;;;6294018;22;20014;-74
2022/10/23 06:15:01;;;;;;;28.63;16.50;;;11.10;99.90;;;;;;6293562;22;20697;-75
2022/10/23 06:17:27;;;;;;;28.67;15.18;;;11.20;99.90;;;;;;6295107;22;20460;-75
2022/10/23 06:19:59;;;;;;;26.98;15.30;;;11.20;99.90;;;;;;6265215;22;20082;-75
2022/10/23 06:22:26;;;;;;;44.22;14.02;;;11.20;99.90;;;;;;6295180;22;20011;-74
2022/10/23 06:24:52;;;;;;;44.85;14.88;;;11.20;99.90;;;;;;6295554;22;20000;-74
2022/10/23 06:27:17;;;;;;;36.38;14.23;;;11.20;99.90;;;;;;6293717;22;20321;-75
2022/10/23 06:29:43;;;;;;;32.17;14.55;;;11.10;99.90;;;;;;6293912;22;20297;-67
2022/10/23 06:32:08;;;;;;;27.02;14.77;;;11.10;99.90;;;;;;6293146;22;20020;-67
2022/10/23 06:34:34;;;;;;;39.67;13.88;;;11.10;99.90;;;;;;6293659;22;20517;-66
2022/10/23 06:37:00;;;;;;;50.10;12.98;;;11.10;99.90;;;;;;6292179;22;20003;-66
2022/10/23 06:39:25;;;;;;;38.92;13.93;;;11.10;99.90;;;;;;6295207;22;20768;-68
2022/10/23 06:41:52;;;;;;;18.23;13.73;;;11.10;99.90;;;;;;6265156;22;20023;-67
2022/10/23 06:44:18;;;;;;;23.77;13.35;;;11.10;99.90;;;;;;6294927;22;20077;-66
2022/10/23 06:46:46;;;;;;;55.28;15.90;;;11.10;99.90;;;;;;6294454;22;20468;-67
2022/10/23 06:49:13;;;;;;;33.92;15.02;;;11.10;99.90;;;;;;6294009;22;20570;-72
2022/10/23 06:51:39;;;;;;;32.35;12.70;;;11.10;99.90;;;;;;6292453;22;19999;-71
2022/10/23 06:54:04;;;;;;;41.40;13.60;;;11.10;99.90;;;;;;6267037;22;19999;-72
2022/10/23 06:56:30;;;;;;;17.10;13.77;;;11.20;99.90;;;;;;6292993;22;20095;-72
2022/10/23 06:58:56;;;;;;;22.45;13.18;;;11.20;99.90;;;;;;6294470;22;20074;-73
2022/10/23 07:01:21;;;;;;;29.52;14.35;;;11.20;99.90;;;;;;6294060;22;20015;-73
2022/10/23 07:03:47;;;;;;;49.60;14.63;;;11.30;99.90;;;;;;6292825;22;20098;-74
2022/10/23 07:06:13;;;;;;;42.95;15.48;;;11.30;99.90;;;;;;6265291;22;20007;-71
2022/10/23 07:08:39;;;;;;;46.60;16.52;;;11.30;99.90;;;;;;6293190;22;20007;-72
2022/10/23 07:11:07;;;;;;;37.25;15.02;;;11.40;99.90;;;;;;6293204;22;20122;-72
2022/10/23 07:13:34;;;;;;;60.92;14.55;;;11.40;99.90;;;;;;6294465;22;20050;-72
2022/10/23 07:16:09;;;;;;;35.88;13.25;;;11.50;99.90;;;;;;6293923;22;20015;-74
2022/10/23 07:18:35;;;;;;;19.55;13.02;;;11.50;99.90;;;;;;6294115;22;20003;-72
2022/10/23 07:21:00;;;;;;;42.47;13.52;;;11.60;99.90;;;;;;6293788;22;20034;-72
2022/10/23 07:23:26;;;;;;;38.80;12.93;;;11.60;99.90;;;;;;6291701;22;20074;-72
2022/10/23 07:25:52;;;;;;;13.65;11.57;;;11.60;99.90;;;;;;6292447;22;20689;-71
2022/10/23 07:28:17;;;;;;;18.65;11.82;;;11.60;99.90;;;;;;6294589;22;20030;-67
2022/10/23 07:30:43;;;;;;;18.20;12.05;;;11.70;99.90;;;;;;6293681;22;20007;-68
2022/10/23 07:33:11;;;;;;;14.93;12.35;;;11.80;99.90;;;;;;6291607;22;20033;-67
2022/10/23 07:35:38;;;;;;;14.98;11.70;;;11.80;99.90;;;;;;6292531;22;20017;-67
2022/10/23 07:38:04;;;;;;;12.93;11.55;;;11.90;99.90;;;;;;6267713;22;20860;-68
2022/10/23 07:40:30;;;;;;;12.98;11.65;;;11.90;99.90;;;;;;6267638;22;20090;-68
2022/10/23 07:42:58;;;;;;;16.73;12.77;;;12.00;99.90;;;;;;6294440;22;20015;-67
2022/10/23 07:45:24;;;;;;;18.30;15.30;;;12.00;99.90;;;;;;6293368;22;20763;-68
2022/10/23 07:47:51;;;;;;;17.77;15.43;;;12.20;99.90;;;;;;6296016;22;20007;-67
2022/10/23 07:50:16;;;;;;;17.20;15.35;;;12.20;99.90;;;;;;6295370;22;20022;-66
2022/10/23 07:52:42;;;;;;;26.73;17.60;;;12.30;99.90;;;;;;6295320;22;19999;-67
2022/10/23 07:55:08;;;;;;;23.92;20.15;;;12.30;99.90;;;;;;6293108;22;20129;-66
2022/10/23 07:57:33;;;;;;;26.08;19.92;;;12.40;99.90;;;;;;6292787;22;20018;-67
2022/10/23 07:59:59;;;;;;;27.17;20.52;;;12.50;99.90;;;;;;6293392;22;20025;-67
2022/10/23 08:02:25;;;;;;;27.33;20.77;;;12.50;99.90;;;;;;6296649;22;20007;-67
2022/10/23 08:04:51;;;;;;;22.23;18.88;;;12.50;99.90;;;;;;6294515;22;20429;-72
2022/10/23 08:07:17;;;;;;;22.83;19.70;;;12.60;99.90;;;;;;6296733;22;20026;-71
2022/10/23 08:09:43;;;;;;;26.63;21.98;;;12.60;99.90;;;;;;6296545;22;20011;-72
2022/10/23 08:12:09;;;;;;;22.70;18.80;;;12.70;99.90;;;;;;6295206;22;20061;-71
2022/10/23 08:14:34;;;;;;;20.60;18.38;;;12.90;99.90;;;;;;6295485;22;20782;-71
2022/10/23 08:17:00;;;;;;;19.30;17.23;;;13.00;99.90;;;;;;6296103;22;20014;-71
2022/10/23 08:19:25;;;;;;;16.73;14.65;;;13.20;99.90;;;;;;6295458;22;20133;-72
2022/10/23 08:21:53;;;;;;;20.38;17.20;;;13.50;99.90;;;;;;6297062;22;20061;-72
2022/10/23 08:24:19;;;;;;;21.63;18.48;;;13.70;99.90;;;;;;6295627;22;19999;-68
2022/10/23 08:26:45;;;;;;;22.17;18.25;;;13.80;99.90;;;;;;6295540;22;20010;-67
2022/10/23 08:29:10;;;;;;;19.08;17.10;;;13.80;99.90;;;;;;6269087;22;20010;-67
2022/10/23 08:31:36;;;;;;;17.27;15.48;;;13.90;99.90;;;;;;6293973;22;20515;-67
2022/10/23 08:34:01;;;;;;;16.75;15.07;;;13.90;99.90;;;;;;6294563;22;20039;-67
2022/10/23 08:36:28;;;;;;;18.23;16.25;;;14.00;99.90;;;;;;6296050;22;20088;-67
2022/10/23 08:38:55;;;;;;;17.00;15.30;;;14.10;99.90;;;;;;6297103;22;20425;-66
2022/10/23 08:41:28;;;;;;;17.65;15.80;;;14.20;99.90;;;;;;6265805;22;20027;-67
2022/10/23 08:44:06;;;;;;;16.92;15.23;;;14.20;99.90;;;;;;6295319;22;20003;-67
2022/10/23 08:46:40;;;;;;;17.85;15.52;;;14.30;99.90;;;;;;6293468;22;20007;-74
2022/10/23 08:49:33;;;;;;;17.25;15.45;;;14.40;99.90;;;;;;6288430;22;20003;-67
2022/10/23 08:52:06;;;;;;;16.92;15.23;;;14.40;99.90;;;;;;6295108;22;20028;-67
2022/10/23 08:55:03;;;;;;;17.30;15.50;;;14.30;99.90;;;;;;6295280;22;19999;-66
2022/10/23 08:57:38;;;;;;;16.58;14.93;;;14.40;99.90;;;;;;6294801;22;20006;-67
2022/10/23 09:00:07;;;;;;;17.20;13.90;;;14.50;99.90;;;;;;6291531;22;20015;-65
2022/10/23 09:02:37;;;;;;;15.00;13.48;;;14.60;99.90;;;;;;6289068;22;20015;-74
2022/10/23 09:05:03;;;;;;;16.05;14.35;;;14.70;99.90;;;;;;6293792;22;20074;-72
2022/10/23 09:07:58;;;;;;;14.77;13.38;;;14.80;99.90;;;;;;6267307;22;20116;-72
2022/10/23 09:11:01;;;;;;;14.18;12.85;;;14.80;99.90;;;;;;6292756;22;20553;-71
2022/10/23 09:13:54;;;;;;;15.43;12.38;;;15.00;99.90;;;;;;6234790;22;20015;-73
2022/10/23 09:17:05;;;;;;;14.20;12.80;;;15.00;99.90;;;;;;6287390;22;20499;-73
2022/10/23 09:19:30;;;;;;;13.35;12.00;;;15.10;99.90;;;;;;6293653;22;20007;-72
2022/10/23 09:21:57;;;;;;;14.23;12.82;;;15.20;99.90;;;;;;6294595;22;20023;-73
2022/10/23 09:24:25;;;;;;;13.70;12.32;;;15.20;99.90;;;;;;6292913;22;20019;-79
2022/10/23 09:26:52;;;;;;;14.50;13.07;;;15.30;99.90;;;;;;6266897;22;20122;-81
2022/10/23 09:29:23;;;;;;;13.23;11.90;;;15.30;99.90;;;;;;6293220;22;19999;-77
2022/10/23 09:31:56;;;;;;;15.80;13.10;;;15.40;99.90;;;;;;6294573;22;20043;-71
2022/10/23 09:34:25;;;;;;;19.45;14.68;;;15.50;99.90;;;;;;6294405;22;20025;-69
2022/10/23 09:36:56;;;;;;;16.55;14.57;;;15.60;99.90;;;;;;6289306;22;20740;-70
2022/10/23 09:39:33;;;;;;;33.25;26.60;;;15.60;99.90;;;;;;6264590;22;20035;-69
2022/10/23 09:42:03;;;;;;;14.57;12.13;;;15.70;99.90;;;;;;6291881;22;20042;-68
2022/10/23 09:44:31;;;;;;;14.05;12.45;;;15.80;99.90;;;;;;6294108;22;19996;-68
2022/10/23 09:47:10;;;;;;;11.27;10.18;;;16.10;99.90;;;;;;6292352;22;20014;-68
2022/10/23 09:49:39;;;;;;;195.40;134.15;;;16.30;99.90;;;;;;6295024;22;20030;-69
2022/10/23 09:52:04;;;;;;;17.75;15.30;;;16.30;99.90;;;;;;6291739;22;20073;-65
2022/10/23 09:54:38;;;;;;;24.80;19.77;;;16.30;99.90;;;;;;6294022;22;20007;-64
2022/10/23 09:57:31;;;;;;;14.27;12.52;;;16.20;99.90;;;;;;6294188;22;20000;-64
2022/10/23 10:00:00;;;;;;;11.77;10.57;;;16.30;99.90;;;;;;6293679;22;20014;-76
2022/10/23 10:02:35;;;;;;;11.25;10.13;;;16.40;99.90;;;;;;6294942;22;20454;-78
2022/10/23 10:05:36;;;;;;;11.30;9.60;;;16.40;99.90;;;;;;6292853;22;20444;-78
2022/10/23 10:08:11;;;;;;;12.40;11.10;;;16.50;99.90;;;;;;6291539;22;20083;-69
2022/10/23 10:10:41;;;;;;;11.05;9.95;;;16.60;99.90;;;;;;6290139;22;20345;-77
2022/10/23 10:13:37;;;;;;;10.35;9.02;;;16.80;99.90;;;;;;6293693;22;20030;-77
2022/10/23 10:16:14;;;;;;;9.55;8.55;;;16.90;99.90;;;;;;6293965;22;20018;-74
2022/10/23 10:18:55;;;;;;;9.85;8.90;;;17.20;99.90;;;;;;6292617;22;20022;-65
2022/10/23 10:21:29;;;;;;;9.70;7.95;;;17.30;99.90;;;;;;6262456;22;20058;-65
2022/10/23 10:24:28;;;;;;;8.88;8.00;;;17.40;99.90;;;;;;6287304;22;20003;-65
2022/10/23 10:27:36;;;;;;;8.02;7.22;;;17.50;99.90;;;;;;6289338;22;20010;-64
2022/10/23 10:30:21;;;;;;;9.55;7.43;;;17.70;99.90;;;;;;6287885;22;20007;-65
2022/10/23 10:33:00;;;;;;;8.75;7.90;;;17.80;99.90;;;;;;6263056;22;20034;-65
2022/10/23 10:35:56;;;;;;;8.52;7.63;;;18.00;99.90;;;;;;6291774;22;20014;-64
2022/10/23 10:39:10;;;;;;;8.82;7.57;;;18.10;99.90;;;;;;6294474;22;20659;-64
2022/10/23 10:41:50;;;;;;;8.60;7.15;;;18.10;99.90;;;;;;6284594;22;20388;-65
2022/10/23 10:44:15;;;;;;;7.72;7.03;;;18.20;99.90;;;;;;6295407;22;20103;-65
2022/10/23 10:46:46;;;;;;;8.13;7.32;;;18.30;99.90;;;;;;6292345;22;20034;-65
2022/10/23 10:49:40;;;;;;;7.53;6.85;;;18.40;99.90;;;;;;6294505;22;20000;-65
2022/10/23 10:52:31;;;;;;;8.25;7.45;;;18.40;99.90;;;;;;6264917;22;20461;-64
2022/10/23 10:55:19;;;;;;;7.55;6.85;;;18.40;99.90;;;;;;6295431;22;20004;-64
2022/10/23 10:57:54;;;;;;;7.72;6.78;;;18.50;99.90;;;;;;6264942;22;20094;-74
2022/10/23 11:00:22;;;;;;;7.68;6.97;;;18.60;99.90;;;;;;6292820;22;20403;-75
2022/10/23 11:02:52;;;;;;;7.88;7.07;;;18.70;99.90;;;;;;6265855;22;20018;-75
2022/10/23 11:05:30;;;;;;;7.88;7.13;;;18.80;99.90;;;;;;6295251;22;20003;-75
2022/10/23 11:08:00;;;;;;;7.35;6.57;;;18.90;99.90;;;;;;6294762;22;20007;-79
2022/10/23 11:10:27;;;;;;;7.53;6.82;;;19.00;99.90;;;;;;6290178;22;20003;-80
2022/10/23 11:12:53;;;;;;;8.15;7.45;;;19.00;99.90;;;;;;6293636;22;19999;-77
2022/10/23 11:15:30;;;;;;;8.32;7.07;;;19.00;99.90;;;;;;6292668;22;20274;-78
2022/10/23 11:17:59;;;;;;;8.15;6.78;;;19.00;99.90;;;;;;6296828;22;20544;-76
2022/10/23 11:20:56;;;;;;;7.90;7.13;;;19.10;99.90;;;;;;6294516;22;20542;-81
2022/10/23 11:23:31;;;;;;;6.20;5.63;;;19.20;99.90;;;;;;6292383;22;20448;-75
2022/10/23 11:26:03;;;;;;;5.70;5.13;;;19.30;99.90;;;;;;6293408;22;20008;-78
2022/10/23 11:28:51;;;;;;;6.30;5.07;;;19.20;99.90;;;;;;6297596;22;20011;-77
2022/10/23 11:31:27;;;;;;;5.70;5.03;;;19.20;99.90;;;;;;6267649;22;20431;-78
2022/10/23 11:34:11;;;;;;;2.13;1.92;;;19.40;99.90;;;;;;6294249;22;19999;-76
2022/10/23 11:36:48;;;;;;;2.88;2.20;;;19.50;99.90;;;;;;6295329;22;20347;-65
2022/10/23 11:39:21;;;;;;;2.75;2.03;;;19.60;99.90;;;;;;6292510;22;20008;-64
2022/10/23 11:41:58;;;;;;;2.95;2.25;;;19.70;99.90;;;;;;6293508;22;20086;-65
2022/10/23 11:44:39;;;;;;;2.80;2.25;;;19.80;99.90;;;;;;6270686;22;20687;-65
2022/10/23 11:47:30;;;;;;;2.28;1.85;;;19.90;99.90;;;;;;6293066;22;20118;-64
2022/10/23 11:50:08;;;;;;;2.03;1.13;;;20.00;99.90;;;;;;6293358;22;20027;-64
2022/10/23 11:52:35;;;;;;;4.65;1.70;;;20.10;99.90;;;;;;6296269;22;20000;-65
2022/10/23 11:55:02;;;;;;;2.15;1.88;;;20.10;99.90;;;;;;6266959;22;20004;-64
2022/10/23 11:57:28;;;;;;;2.45;1.60;;;20.10;99.90;;;;;;6294274;22;20084;-64
2022/10/23 11:59:55;;;;;;;2.35;1.98;;;20.10;99.90;;;;;;6291623;22;20428;-65
2022/10/23 12:02:37;;;;;;;2.50;2.13;;;20.20;99.90;;;;;;6289327;22;20042;-66
2022/10/23 12:05:24;;;;;;;3.20;1.70;;;20.20;99.90;;;;;;6290995;22;20013;-66
2022/10/23 12:07:57;;;;;;;4.30;3.17;;;20.20;99.90;;;;;;6289382;22;20237;-65
2022/10/23 12:10:33;;;;;;;4.82;3.53;;;20.30;99.90;;;;;;6289104;22;20542;-65
2022/10/23 12:13:04;;;;;;;5.47;4.30;;;20.30;99.90;;;;;;6290723;22;20031;-65
2022/10/23 12:15:33;;;;;;;5.10;4.03;;;20.30;99.90;;;;;;6289014;22;20003;-64
2022/10/23 12:18:16;;;;;;;5.13;3.70;;;20.10;99.90;;;;;;6289908;22;20003;-66
2022/10/23 12:20:59;;;;;;;5.85;4.07;;;20.00;99.90;;;;;;6289840;22;20011;-64
2022/10/23 12:23:50;;;;;;;4.20;3.65;;;19.90;99.90;;;;;;6287631;22;20442;-64
2022/10/23 12:26:29;;;;;;;4.57;3.67;;;19.90;99.90;;;;;;6288815;22;20726;-64
2022/10/23 12:29:14;;;;;;;4.47;3.25;;;19.80;99.90;;;;;;6288368;22;20019;-67
2022/10/23 12:31:57;;;;;;;5.20;4.70;;;19.80;99.90;;;;;;6289457;22;20019;-68
2022/10/23 12:35:01;;;;;;;11.50;4.63;;;19.80;99.90;;;;;;6239553;22;20034;-64
2022/10/23 12:37:39;;;;;;;5.38;4.88;;;19.70;99.90;;;;;;6236104;22;20021;-64
2022/10/23 12:40:09;;;;;;;8.38;5.72;;;19.70;99.90;;;;;;6293526;22;19999;-64
2022/10/23 12:42:36;;;;;;;6.93;5.00;;;19.80;99.90;;;;;;6292379;22;20011;-66
2022/10/23 12:45:14;;;;;;;4.70;3.83;;;19.80;99.90;;;;;;6294095;22;19999;-63
2022/10/23 12:47:41;;;;;;;7.25;5.10;;;19.80;99.90;;;;;;6291799;22;20078;-65
2022/10/23 12:50:29;;;;;;;10.30;5.35;;;19.90;99.90;;;;;;6289720;22;20003;-65
2022/10/23 12:52:55;;;;;;;7.35;5.50;;;19.90;99.90;;;;;;6291851;22;20436;-64